sensor_id;sensor_type;location;lat;lon;timestamp;pressure;altitude;pressure_sealevel;temperature;humidity
19023;BME280;35226;48.606;8.858;2022-09-03T00:01:32;95896.97;;;20.43;98.40
19023;BME280;35226;48.606;8.858;2022-09-03T00:04:04;95901.81;;;20.42;98.05
19023;BME280;35226;48.606;8.858;2022-09-03T00:06:47;95900.28;;;20.47;98.61
19023;BME280;35226;48.606;8.858;2022-09-03T00:14:33;95901.56;;;20.46;98.44
19023;BME280;35226;48.606;8.858;2022-09-03T00:17:04;95904.13;;;20.44;98.97
19023;BME280;35226;48.606;8.858;2022-09-03T00:19:37;95899.56;;;20.35;99.60
19023;BME280;35226;48.606;8.858;2022-09-03T00:22:29;95899.56;;;20.35;100.00
19023;BME280;35226;48.606;8.858;2022-09-03T00:24:58;95899.56;;;20.35;100.00
19023;BME280;35226;48.606;8.858;2022-09-03T00:27:28;95891.09;;;20.41;100.00
19023;BME280;35226;48.606;8.858;2022-09-03T00:30:00;95895.47;;;20.36;100.00
19023;BME280;35226;48.606;8.858;2022-09-03T00:32:40;95898.75;;;20.46;100.00
19023;BME280;35226;48.606;8.858;2022-09-03T00:35:15;95900.53;;;20.43;100.00
19023;BME280;35226;48.606;8.858;2022-09-03T00:37:43;95894.44;;;20.33;100.00
19023;BME280;35226;48.606;8.858;2022-09-03T00:45:46;95908.22;;;20.31;100.00
19023;BME280;35226;48.606;8.858;2022-09-03T00:48:23;95912.13;;;20.17;100.00
19023;BME280;35226;48.606;8.858;2022-09-03T00:51:14;95904.50;;;20.12;100.00
19023;BME280;35226;48.606;8.858;2022-09-03T00:56:19;95901.94;;;20.14;100.00
19023;BME280;35226;48.606;8.858;2022-09-03T01:07:28;95897.13;;;20.04;100.00
19023;BME280;35226;48.606;8.858;2022-09-03T01:10:19;95895.34;;;20.01;100.00
19023;BME280;35226;48.606;8.858;2022-09-03T01:13:00;95890.53;;;19.95;100.00
19023;BME280;35226;48.606;8.858;2022-09-03T01:15:44;95896.41;;;19.92;100.00
19023;BME280;35226;48.606;8.858;2022-09-03T01:21:14;95896.66;;;19.94;100.00
19023;BME280;35226;48.606;8.858;2022-09-03T01:29:20;95891.56;;;19.92;100.00
19023;BME280;35226;48.606;8.858;2022-09-03T01:42:23;95909.69;;;19.80;100.00
19023;BME280;35226;48.606;8.858;2022-09-03T01:50:28;95902.34;;;19.77;100.00
19023;BME280;35226;48.606;8.858;2022-09-03T01:58:46;95910.97;;;19.79;100.00
19023;BME280;35226;48.606;8.858;2022-09-03T02:01:21;95905.66;;;19.76;100.00
19023;BME280;35226;48.606;8.858;2022-09-03T02:03:49;95901.84;;;19.68;100.00
19023;BME280;35226;48.606;8.858;2022-09-03T02:06:16;95910.22;;;19.73;100.00
19023;BME280;35226;48.606;8.858;2022-09-03T02:08:43;95912.28;;;19.67;100.00
19023;BME280;35226;48.606;8.858;2022-09-03T02:11:09;95913.53;;;19.72;100.00
19023;BME280;35226;48.606;8.858;2022-09-03T02:13:40;95907.16;;;19.71;100.00
19023;BME280;35226;48.606;8.858;2022-09-03T02:16:21;95904.88;;;19.75;100.00
19023;BME280;35226;48.606;8.858;2022-09-03T02:19:08;95903.34;;;19.69;100.00
19023;BME280;35226;48.606;8.858;2022-09-03T02:21:38;95901.06;;;19.73;100.00
19023;BME280;35226;48.606;8.858;2022-09-03T02:24:06;95901.09;;;19.67;100.00
19023;BME280;35226;48.606;8.858;2022-09-03T02:26:32;95892.94;;;19.64;100.00
19023;BME280;35226;48.606;8.858;2022-09-03T02:29:00;95889.63;;;19.59;100.00
19023;BME280;35226;48.606;8.858;2022-09-03T02:31:27;95881.50;;;19.56;100.00
19023;BME280;35226;48.606;8.858;2022-09-03T02:33:55;95885.56;;;19.49;100.00
19023;BME280;35226;48.606;8.858;2022-09-03T02:36:27;95890.16;;;19.58;100.00
19023;BME280;35226;48.606;8.858;2022-09-03T02:38:54;95895.25;;;19.54;100.00
19023;BME280;35226;48.606;8.858;2022-09-03T02:41:19;95897.53;;;19.55;100.00
19023;BME280;35226;48.606;8.858;2022-09-03T02:44:23;95902.38;;;19.55;100.00
19023;BME280;35226;48.606;8.858;2022-09-03T02:49:20;95911.31;;;19.48;100.00
19023;BME280;35226;48.606;8.858;2022-09-03T02:51:45;95916.63;;;19.46;100.00
19023;BME280;35226;48.606;8.858;2022-09-03T02:54:11;95913.81;;;19.40;100.00
19023;BME280;35226;48.606;8.858;2022-09-03T02:56:38;95909.00;;;19.35;100.00
19023;BME280;35226;48.606;8.858;2022-09-03T02:59:05;95905.94;;;19.44;100.00
19023;BME280;35226;48.606;8.858;2022-09-03T03:01:31;95908.50;;;19.37;100.00
19023;BME280;35226;48.606;8.858;2022-09-03T03:03:58;95905.69;;;19.37;100.00
19023;BME280;35226;48.606;8.858;2022-09-03T03:06:24;95905.16;;;19.44;100.00
19023;BME280;35226;48.606;8.858;2022-09-03T03:08:50;95900.88;;;19.48;100.00
19023;BME280;35226;48.606;8.858;2022-09-03T03:11:17;95902.63;;;19.51;100.00
19023;BME280;35226;48.606;8.858;2022-09-03T03:13:47;95904.16;;;19.47;100.00
19023;BME280;35226;48.606;8.858;2022-09-03T03:16:13;95901.34;;;19.41;100.00
19023;BME280;35226;48.606;8.858;2022-09-03T03:18:43;95901.34;;;19.41;100.00
19023;BME280;35226;48.606;8.858;2022-09-03T03:21:13;95902.13;;;19.42;100.00
19023;BME280;35226;48.606;8.858;2022-09-03T03:23:39;95916.88;;;19.42;100.00
19023;BME280;35226;48.606;8.858;2022-09-03T03:26:11;95914.09;;;19.37;100.00
19023;BME280;35226;48.606;8.858;2022-09-03T03:28:37;95909.28;;;19.04;100.00
19023;BME280;35226;48.606;8.858;2022-09-03T03:31:11;95908.25;;;19.23;100.00
19023;BME280;35226;48.606;8.858;2022-09-03T03:33:38;95907.75;;;19.14;100.00
19023;BME280;35226;48.606;8.858;2022-09-03T03:36:06;95900.63;;;19.18;100.00
19023;BME280;35226;48.606;8.858;2022-09-03T03:38:32;95910.03;;;19.32;100.00
19023;BME280;35226;48.606;8.858;2022-09-03T03:40:58;95907.50;;;19.17;100.00
19023;BME280;35226;48.606;8.858;2022-09-03T03:43:24;95915.13;;;19.22;100.00
19023;BME280;35226;48.606;8.858;2022-09-03T03:45:59;95914.88;;;19.20;100.00
19023;BME280;35226;48.606;8.858;2022-09-03T03:48:25;95914.88;;;19.15;100.00
19023;BME280;35226;48.606;8.858;2022-09-03T03:50:51;95911.06;;;19.12;100.00
19023;BME280;35226;48.606;8.858;2022-09-03T03:53:16;95913.34;;;19.14;100.00
19023;BME280;35226;48.606;8.858;2022-09-03T03:55:42;95923.78;;;19.08;100.00
19023;BME280;35226;48.606;8.858;2022-09-03T03:58:08;95927.09;;;19.17;100.00
19023;BME280;35226;48.606;8.858;2022-09-03T04:00:33;95926.81;;;19.10;100.00
19023;BME280;35226;48.606;8.858;2022-09-03T04:03:03;95926.84;;;19.15;100.00
19023;BME280;35226;48.606;8.858;2022-09-03T04:05:29;95924.53;;;19.31;100.00
19023;BME280;35226;48.606;8.858;2022-09-03T04:07:54;95928.88;;;19.32;100.00
19023;BME280;35226;48.606;8.858;2022-09-03T04:10:20;95924.78;;;19.21;100.00
19023;BME280;35226;48.606;8.858;2022-09-03T04:12:45;95930.66;;;19.29;100.00
19023;BME280;35226;48.606;8.858;2022-09-03T04:15:11;95931.16;;;19.22;100.00
19023;BME280;35226;48.606;8.858;2022-09-03T04:17:37;95918.69;;;19.29;100.00
19023;BME280;35226;48.606;8.858;2022-09-03T04:20:04;95918.69;;;19.29;100.00
19023;BME280;35226;48.606;8.858;2022-09-03T04:22:30;95923.03;;;19.24;100.00
19023;BME280;35226;48.606;8.858;2022-09-03T04:24:55;95915.63;;;19.21;100.00
19023;BME280;35226;48.606;8.858;2022-09-03T04:27:21;95913.84;;;19.12;100.00
19023;BME280;35226;48.606;8.858;2022-09-03T04:29:47;95919.97;;;19.16;100.00
19023;BME280;35226;48.606;8.858;2022-09-03T04:32:12;95910.53;;;19.19;100.00
19023;BME280;35226;48.606;8.858;2022-09-03T04:34:56;95913.59;;;19.16;100.00
19023;BME280;35226;48.606;8.858;2022-09-03T04:37:22;95912.84;;;19.15;100.00
19023;BME280;35226;48.606;8.858;2022-09-03T04:39:47;95908.53;;;19.09;100.00
19023;BME280;35226;48.606;8.858;2022-09-03T04:42:13;95901.88;;;19.12;100.00
19023;BME280;35226;48.606;8.858;2022-09-03T04:44:38;95911.28;;;19.20;100.00
19023;BME280;35226;48.606;8.858;2022-09-03T04:47:05;95915.63;;;19.27;100.00
19023;BME280;35226;48.606;8.858;2022-09-03T04:49:31;95916.66;;;19.23;100.00
19023;BME280;35226;48.606;8.858;2022-09-03T04:51:56;95921.25;;;19.15;100.00
19023;BME280;35226;48.606;8.858;2022-09-03T04:54:22;95915.63;;;19.27;100.00
19023;BME280;35226;48.606;8.858;2022-09-03T04:56:47;95921.75;;;19.25;100.00
19023;BME280;35226;48.606;8.858;2022-09-03T04:59:13;95929.38;;;19.30;100.00
19023;BME280;35226;48.606;8.858;2022-09-03T05:01:39;95923.53;;;19.28;100.00
19023;BME280;35226;48.606;8.858;2022-09-03T05:04:06;95924.81;;;19.38;100.00
19023;BME280;35226;48.606;8.858;2022-09-03T05:06:33;95922.75;;;19.33;100.00
19023;BME280;35226;48.606;8.858;2022-09-03T05:08:59;95930.91;;;19.31;100.00
19023;BME280;35226;48.606;8.858;2022-09-03T05:11:28;95925.84;;;19.07;100.00
19023;BME280;35226;48.606;8.858;2022-09-03T05:13:56;95926.84;;;19.15;100.00
19023;BME280;35226;48.606;8.858;2022-09-03T05:16:23;95929.13;;;19.22;100.00
19023;BME280;35226;48.606;8.858;2022-09-03T05:18:54;95921.25;;;19.27;100.00
19023;BME280;35226;48.606;8.858;2022-09-03T05:21:20;95924.56;;;19.25;100.00
19023;BME280;35226;48.606;8.858;2022-09-03T05:23:48;95930.13;;;19.19;100.00
19023;BME280;35226;48.606;8.858;2022-09-03T05:26:20;95923.28;;;19.15;100.00
19023;BME280;35226;48.606;8.858;2022-09-03T05:28:47;95927.88;;;19.18;100.00
19023;BME280;35226;48.606;8.858;2022-09-03T05:31:14;95927.59;;;19.21;100.00
19023;BME280;35226;48.606;8.858;2022-09-03T05:33:45;95933.47;;;19.18;100.00
19023;BME280;35226;48.606;8.858;2022-09-03T05:36:17;95936.00;;;19.16;100.00
19023;BME280;35226;48.606;8.858;2022-09-03T05:38:43;95931.41;;;19.24;100.00
19023;BME280;35226;48.606;8.858;2022-09-03T05:41:11;95929.13;;;19.22;100.00
19023;BME280;35226;48.606;8.858;2022-09-03T05:43:38;95931.16;;;19.22;100.00
19023;BME280;35226;48.606;8.858;2022-09-03T05:46:09;95933.19;;;19.33;100.00
19023;BME280;35226;48.606;8.858;2022-09-03T05:48:36;95933.44;;;19.35;100.00
19023;BME280;35226;48.606;8.858;2022-09-03T05:51:05;95940.31;;;19.39;100.00
19023;BME280;35226;48.606;8.858;2022-09-03T05:53:33;95939.81;;;19.41;100.00
19023;BME280;35226;48.606;8.858;2022-09-03T05:56:01;95941.84;;;19.35;100.00
19023;BME280;35226;48.606;8.858;2022-09-03T05:58:34;95930.66;;;19.35;100.00
19023;BME280;35226;48.606;8.858;2022-09-03T06:01:11;95941.59;;;19.44;100.00
19023;BME280;35226;48.606;8.858;2022-09-03T06:03:42;95944.94;;;19.48;100.00
19023;BME280;35226;48.606;8.858;2022-09-03T06:06:08;95944.16;;;19.47;100.00
19023;BME280;35226;48.606;8.858;2022-09-03T06:08:35;95950.00;;;19.49;100.00
19023;BME280;35226;48.606;8.858;2022-09-03T06:11:03;95950.28;;;19.51;100.00
19023;BME280;35226;48.606;8.858;2022-09-03T06:13:29;95953.06;;;19.63;100.00
19023;BME280;35226;48.606;8.858;2022-09-03T06:15:56;95951.56;;;19.56;100.00
19023;BME280;35226;48.606;8.858;2022-09-03T06:18:23;95946.69;;;19.51;100.00
19023;BME280;35226;48.606;8.858;2022-09-03T06:20:56;95939.56;;;19.50;100.00
19023;BME280;35226;48.606;8.858;2022-09-03T06:23:23;95945.66;;;19.59;100.00
19023;BME280;35226;48.606;8.858;2022-09-03T06:25:59;95944.16;;;19.64;100.00
19023;BME280;35226;48.606;8.858;2022-09-03T06:28:25;95948.25;;;19.57;100.00
19023;BME280;35226;48.606;8.858;2022-09-03T06:30:52;95947.47;;;19.57;100.00
19023;BME280;35226;48.606;8.858;2022-09-03T06:33:18;95946.41;;;19.71;100.00
19023;BME280;35226;48.606;8.858;2022-09-03T06:35:44;95946.66;;;19.84;100.00
19023;BME280;35226;48.606;8.858;2022-09-03T06:38:11;95946.88;;;19.92;100.00
19023;BME280;35226;48.606;8.858;2022-09-03T06:40:37;95942.81;;;19.87;100.00
19023;BME280;35226;48.606;8.858;2022-09-03T06:43:03;95937.97;;;19.88;100.00
19023;BME280;35226;48.606;8.858;2022-09-03T06:45:29;95936.94;;;19.97;100.00
19023;BME280;35226;48.606;8.858;2022-09-03T06:47:55;95937.16;;;19.99;100.00
19023;BME280;35226;48.606;8.858;2022-09-03T06:50:21;95939.47;;;19.94;100.00
19023;BME280;35226;48.606;8.858;2022-09-03T06:52:53;95938.69;;;20.00;100.00
19023;BME280;35226;48.606;8.858;2022-09-03T06:55:22;95941.78;;;19.96;100.00
19023;BME280;35226;48.606;8.858;2022-09-03T06:57:48;95935.88;;;20.00;100.00
19023;BME280;35226;48.606;8.858;2022-09-03T07:00:14;95937.41;;;20.01;100.00
19023;BME280;35226;48.606;8.858;2022-09-03T07:02:40;95940.69;;;20.10;100.00
19023;BME280;35226;48.606;8.858;2022-09-03T07:05:08;95939.41;;;20.17;100.00
19023;BME280;35226;48.606;8.858;2022-09-03T07:07:34;95936.72;;;19.83;100.00
19023;BME280;35226;48.606;8.858;2022-09-03T07:09:59;95940.91;;;20.18;100.00
19023;BME280;35226;48.606;8.858;2022-09-03T07:12:26;95943.78;;;20.07;100.00
19023;BME280;35226;48.606;8.858;2022-09-03T07:14:52;95949.31;;;20.18;100.00
19023;BME280;35226;48.606;8.858;2022-09-03T07:17:17;95940.97;;;20.07;100.00
19023;BME280;35226;48.606;8.858;2022-09-03T07:19:43;95942.28;;;19.89;100.00
19023;BME280;35226;48.606;8.858;2022-09-03T07:22:08;95948.25;;;20.38;100.00
19023;BME280;35226;48.606;8.858;2022-09-03T07:24:34;95944.09;;;20.55;100.00
19023;BME280;35226;48.606;8.858;2022-09-03T07:27:02;95945.38;;;20.54;100.00
19023;BME280;35226;48.606;8.858;2022-09-03T07:29:29;95941.06;;;20.48;100.00
19023;BME280;35226;48.606;8.858;2022-09-03T07:31:55;95932.19;;;20.85;100.00
19023;BME280;35226;48.606;8.858;2022-09-03T07:34:21;95929.41;;;20.79;100.00
19023;BME280;35226;48.606;8.858;2022-09-03T07:36:50;95932.63;;;20.94;100.00
19023;BME280;35226;48.606;8.858;2022-09-03T07:39:16;95942.66;;;20.84;100.00
19023;BME280;35226;48.606;8.858;2022-09-03T07:41:43;95945.16;;;20.88;100.00
19023;BME280;35226;48.606;8.858;2022-09-03T07:44:11;95947.47;;;20.89;100.00
19023;BME280;35226;48.606;8.858;2022-09-03T07:46:39;95953.19;;;21.08;100.00
19023;BME280;35226;48.606;8.858;2022-09-03T07:49:06;95955.25;;;21.08;100.00
19023;BME280;35226;48.606;8.858;2022-09-03T07:51:33;95959.81;;;21.11;100.00
19023;BME280;35226;48.606;8.858;2022-09-03T07:54:01;95950.34;;;21.19;100.00
19023;BME280;35226;48.606;8.858;2022-09-03T07:56:28;95953.91;;;21.20;100.00
19023;BME280;35226;48.606;8.858;2022-09-03T07:58:57;95957.44;;;21.26;100.00
19023;BME280;35226;48.606;8.858;2022-09-03T08:01:25;95960.84;;;21.13;100.00
19023;BME280;35226;48.606;8.858;2022-09-03T08:03:54;95956.06;;;21.38;100.00
19023;BME280;35226;48.606;8.858;2022-09-03T08:06:22;95959.72;;;21.57;100.00
19023;BME280;35226;48.606;8.858;2022-09-03T08:08:54;95959.69;;;21.63;100.00
19023;BME280;35226;48.606;8.858;2022-09-03T08:11:22;95963.13;;;21.50;100.00
19023;BME280;35226;48.606;8.858;2022-09-03T08:16:19;95956.03;;;21.98;100.00
19023;BME280;35226;48.606;8.858;2022-09-03T08:18:45;95955.06;;;21.90;100.00
19023;BME280;35226;48.606;8.858;2022-09-03T08:21:16;95958.56;;;22.01;100.00
19023;BME280;35226;48.606;8.858;2022-09-03T08:23:45;95952.03;;;22.12;100.00
19023;BME280;35226;48.606;8.858;2022-09-03T08:26:11;95952.84;;;22.07;100.00
19023;BME280;35226;48.606;8.858;2022-09-03T08:28:37;95955.44;;;22.05;100.00
19023;BME280;35226;48.606;8.858;2022-09-03T08:31:11;95955.91;;;22.09;100.00
19023;BME280;35226;48.606;8.858;2022-09-03T08:33:38;95976.00;;;22.19;100.00
19023;BME280;35226;48.606;8.858;2022-09-03T08:36:07;95972.03;;;22.08;100.00
19023;BME280;35226;48.606;8.858;2022-09-03T08:38:34;95967.25;;;22.03;100.00
19023;BME280;35226;48.606;8.858;2022-09-03T08:50:08;95992.69;;;22.35;100.00
19023;BME280;35226;48.606;8.858;2022-09-03T08:52:44;95986.50;;;22.42;100.00
19023;BME280;35226;48.606;8.858;2022-09-03T08:58:08;95986.69;;;22.44;100.00
19023;BME280;35226;48.606;8.858;2022-09-03T09:23:06;95977.38;;;22.93;100.00
19023;BME280;35226;48.606;8.858;2022-09-03T09:25:33;95977.81;;;23.15;100.00
19023;BME280;35226;48.606;8.858;2022-09-03T09:28:17;95970.53;;;23.07;100.00
19023;BME280;35226;48.606;8.858;2022-09-03T09:30:46;95976.69;;;23.05;100.00
19023;BME280;35226;48.606;8.858;2022-09-03T09:33:14;95969.91;;;23.14;100.00
19023;BME280;35226;48.606;8.858;2022-09-03T09:35:40;95971.28;;;23.07;100.00
19023;BME280;35226;48.606;8.858;2022-09-03T09:38:08;95988.41;;;23.28;99.86
19023;BME280;35226;48.606;8.858;2022-09-03T09:40:37;95985.09;;;23.43;98.85
19023;BME280;35226;48.606;8.858;2022-09-03T09:43:29;95995.50;;;23.16;98.16
19023;BME280;35226;48.606;8.858;2022-09-03T09:46:06;96000.13;;;23.32;100.00
19023;BME280;35226;48.606;8.858;2022-09-03T09:48:37;96001.03;;;23.40;99.51
19023;BME280;35226;48.606;8.858;2022-09-03T09:51:11;95995.25;;;23.33;100.00
19023;BME280;35226;48.606;8.858;2022-09-03T09:53:38;95990.88;;;23.32;99.92
19023;BME280;35226;48.606;8.858;2022-09-03T09:56:04;95984.41;;;23.37;100.00
19023;BME280;35226;48.606;8.858;2022-09-03T09:58:32;95977.88;;;23.29;100.00
19023;BME280;35226;48.606;8.858;2022-09-03T10:01:11;95981.13;;;23.33;95.77
19023;BME280;35226;48.606;8.858;2022-09-03T10:03:48;95976.41;;;23.59;96.37
19023;BME280;35226;48.606;8.858;2022-09-03T10:06:15;95972.28;;;23.74;95.13
19023;BME280;35226;48.606;8.858;2022-09-03T10:09:17;95966.75;;;23.81;92.77
19023;BME280;35226;48.606;8.858;2022-09-03T10:14:37;95976.53;;;23.80;94.26
19023;BME280;35226;48.606;8.858;2022-09-03T10:17:13;95978.50;;;23.85;99.07
19023;BME280;35226;48.606;8.858;2022-09-03T10:19:49;95980.13;;;23.94;94.31
19023;BME280;35226;48.606;8.858;2022-09-03T10:22:44;95978.94;;;23.89;89.98
19023;BME280;35226;48.606;8.858;2022-09-03T10:25:14;95977.00;;;23.97;89.99
19023;BME280;35226;48.606;8.858;2022-09-03T10:27:42;95977.53;;;23.96;90.84
19023;BME280;35226;48.606;8.858;2022-09-03T10:30:12;95981.13;;;23.96;91.46
19023;BME280;35226;48.606;8.858;2022-09-03T10:32:43;95974.59;;;23.88;90.78
19023;BME280;35226;48.606;8.858;2022-09-03T10:40:50;95972.66;;;23.96;95.12
19023;BME280;35226;48.606;8.858;2022-09-03T10:46:12;95978.94;;;24.03;88.14
19023;BME280;35226;48.606;8.858;2022-09-03T10:51:26;95987.09;;;24.06;100.00
19023;BME280;35226;48.606;8.858;2022-09-03T10:56:45;95976.78;;;23.95;100.00
19023;BME280;35226;48.606;8.858;2022-09-03T11:05:29;95983.47;;;23.47;100.00
19023;BME280;35226;48.606;8.858;2022-09-03T11:08:02;95986.22;;;23.21;100.00
19023;BME280;35226;48.606;8.858;2022-09-03T11:10:33;95987.56;;;23.14;100.00
19023;BME280;35226;48.606;8.858;2022-09-03T11:13:18;95989.50;;;23.06;100.00
19023;BME280;35226;48.606;8.858;2022-09-03T11:15:55;95999.72;;;22.47;100.00
19023;BME280;35226;48.606;8.858;2022-09-03T11:18:30;95995.22;;;22.39;100.00
19023;BME280;35226;48.606;8.858;2022-09-03T11:21:03;95983.16;;;22.20;100.00
19023;BME280;35226;48.606;8.858;2022-09-03T11:23:33;95975.88;;;21.81;100.00
19023;BME280;35226;48.606;8.858;2022-09-03T11:26:06;95970.41;;;21.89;100.00
19023;BME280;35226;48.606;8.858;2022-09-03T11:34:11;95987.47;;;21.72;100.00
19023;BME280;35226;48.606;8.858;2022-09-03T11:36:39;96023.38;;;21.25;100.00
19023;BME280;35226;48.606;8.858;2022-09-03T11:39:23;96039.66;;;20.85;100.00
19023;BME280;35226;48.606;8.858;2022-09-03T11:41:58;96038.16;;;19.87;100.00
19023;BME280;35226;48.606;8.858;2022-09-03T11:44:35;96028.59;;;20.29;100.00
19023;BME280;35226;48.606;8.858;2022-09-03T11:47:15;96028.53;;;20.63;100.00
19023;BME280;35226;48.606;8.858;2022-09-03T11:49:51;96047.44;;;20.51;100.00
19023;BME280;35226;48.606;8.858;2022-09-03T11:52:30;96092.16;;;20.05;100.00
19023;BME280;35226;48.606;8.858;2022-09-03T11:55:06;96104.41;;;19.90;100.00
19023;BME280;35226;48.606;8.858;2022-09-03T11:57:39;96107.47;;;19.92;100.00
19023;BME280;35226;48.606;8.858;2022-09-03T12:02:56;96092.69;;;19.81;100.00
19023;BME280;35226;48.606;8.858;2022-09-03T12:05:32;96079.44;;;19.48;100.00
19023;BME280;35226;48.606;8.858;2022-09-03T12:10:50;96053.59;;;19.05;100.00
19023;BME280;35226;48.606;8.858;2022-09-03T12:16:22;96065.56;;;19.00;100.00
19023;BME280;35226;48.606;8.858;2022-09-03T12:18:59;96063.50;;;19.00;100.00
19023;BME280;35226;48.606;8.858;2022-09-03T12:21:25;96058.94;;;18.97;100.00
19023;BME280;35226;48.606;8.858;2022-09-03T12:23:51;96056.84;;;18.81;100.00
19023;BME280;35226;48.606;8.858;2022-09-03T12:26:19;96063.72;;;18.91;100.00
19023;BME280;35226;48.606;8.858;2022-09-03T12:28:48;96054.94;;;18.56;100.00
19023;BME280;35226;48.606;8.858;2022-09-03T12:31:24;96060.69;;;18.95;100.00
19023;BME280;35226;48.606;8.858;2022-09-03T12:34:02;96053.81;;;18.90;100.00
19023;BME280;35226;48.606;8.858;2022-09-03T12:36:39;96054.88;;;18.98;100.00
19023;BME280;35226;48.606;8.858;2022-09-03T12:39:26;96061.50;;;19.06;100.00
19023;BME280;35226;48.606;8.858;2022-09-03T12:47:16;96059.72;;;19.14;100.00
19023;BME280;35226;48.606;8.858;2022-09-03T12:49:45;96059.50;;;19.18;100.00
19023;BME280;35226;48.606;8.858;2022-09-03T12:52:31;96063.34;;;19.37;100.00
19023;BME280;35226;48.606;8.858;2022-09-03T12:55:05;96060.78;;;19.39;100.00
19023;BME280;35226;48.606;8.858;2022-09-03T12:57:42;96059.53;;;19.46;100.00
19023;BME280;35226;48.606;8.858;2022-09-03T13:00:13;96062.84;;;19.61;100.00
19023;BME280;35226;48.606;8.858;2022-09-03T13:05:18;96075.88;;;19.64;100.00
19023;BME280;35226;48.606;8.858;2022-09-03T13:07:51;96081.72;;;19.72;100.00
19023;BME280;35226;48.606;8.858;2022-09-03T13:10:28;96074.59;;;19.82;100.00
19023;BME280;35226;48.606;8.858;2022-09-03T13:13:00;96075.09;;;19.75;100.00
19023;BME280;35226;48.606;8.858;2022-09-03T13:15:27;96074.56;;;20.04;100.00
19023;BME280;35226;48.606;8.858;2022-09-03T13:24:04;96075.56;;;20.23;100.00
19023;BME280;35226;48.606;8.858;2022-09-03T13:26:46;96074.25;;;20.41;100.00
19023;BME280;35226;48.606;8.858;2022-09-03T13:32:01;96073.72;;;20.54;100.00
19023;BME280;35226;48.606;8.858;2022-09-03T13:34:33;96068.66;;;20.30;100.00
19023;BME280;35226;48.606;8.858;2022-09-03T13:42:52;96056.84;;;20.65;100.00
19023;BME280;35226;48.606;8.858;2022-09-03T13:45:39;96058.03;;;20.81;100.00
19023;BME280;35226;48.606;8.858;2022-09-03T13:48:20;96057.03;;;20.78;100.00
19023;BME280;35226;48.606;8.858;2022-09-03T13:54:02;96049.75;;;21.05;100.00
19023;BME280;35226;48.606;8.858;2022-09-03T13:59:25;96019.38;;;21.45;100.00
19023;BME280;35226;48.606;8.858;2022-09-03T14:02:06;96004.50;;;21.79;100.00
19023;BME280;35226;48.606;8.858;2022-09-03T14:13:05;96014.53;;;22.29;100.00
19023;BME280;35226;48.606;8.858;2022-09-03T14:15:48;96014.06;;;22.01;100.00
19023;BME280;35226;48.606;8.858;2022-09-03T14:18:28;96013.53;;;22.02;100.00
19023;BME280;35226;48.606;8.858;2022-09-03T14:21:00;96009.34;;;22.33;100.00
19023;BME280;35226;48.606;8.858;2022-09-03T14:23:42;96006.88;;;22.24;100.00
19023;BME280;35226;48.606;8.858;2022-09-03T14:26:17;96013.59;;;22.21;100.00
19023;BME280;35226;48.606;8.858;2022-09-03T14:28:48;96015.50;;;22.07;100.00
19023;BME280;35226;48.606;8.858;2022-09-03T14:40:12;96010.47;;;22.00;100.00
19023;BME280;35226;48.606;8.858;2022-09-03T14:45:49;96017.13;;;22.03;100.00
19023;BME280;35226;48.606;8.858;2022-09-03T14:56:24;96019.75;;;22.20;100.00
19023;BME280;35226;48.606;8.858;2022-09-03T15:01:49;96014.53;;;22.29;100.00
19023;BME280;35226;48.606;8.858;2022-09-03T15:04:44;96019.63;;;22.31;100.00
19023;BME280;35226;48.606;8.858;2022-09-03T15:07:30;96007.44;;;22.23;100.00
19023;BME280;35226;48.606;8.858;2022-09-03T15:10:11;96012.25;;;22.71;100.00
19023;BME280;35226;48.606;8.858;2022-09-03T15:18:31;96018.06;;;22.54;100.00
19023;BME280;35226;48.606;8.858;2022-09-03T15:26:59;96021.59;;;22.60;100.00
19023;BME280;35226;48.606;8.858;2022-09-03T15:29:46;96024.47;;;22.73;100.00
19023;BME280;35226;48.606;8.858;2022-09-03T15:37:35;96030.38;;;22.94;100.00
19023;BME280;35226;48.606;8.858;2022-09-03T15:40:27;96032.38;;;22.80;100.00
19023;BME280;35226;48.606;8.858;2022-09-03T15:43:10;96032.09;;;22.60;100.00
19023;BME280;35226;48.606;8.858;2022-09-03T15:51:02;96030.31;;;22.81;100.00
19023;BME280;35226;48.606;8.858;2022-09-03T15:53:49;96030.84;;;22.79;100.00
19023;BME280;35226;48.606;8.858;2022-09-03T15:56:31;96018.59;;;22.77;100.00
19023;BME280;35226;48.606;8.858;2022-09-03T16:07:45;96033.66;;;22.55;100.00
19023;BME280;35226;48.606;8.858;2022-09-03T16:10:15;96032.09;;;22.60;100.00
19023;BME280;35226;48.606;8.858;2022-09-03T16:18:22;96024.63;;;22.62;100.00
19023;BME280;35226;48.606;8.858;2022-09-03T16:21:11;96027.38;;;22.68;100.00
19023;BME280;35226;48.606;8.858;2022-09-03T16:24:02;96020.22;;;22.67;100.00
19023;BME280;35226;48.606;8.858;2022-09-03T16:26:58;96026.75;;;22.80;100.00
19023;BME280;35226;48.606;8.858;2022-09-03T16:29:25;96013.03;;;22.90;100.00
19023;BME280;35226;48.606;8.858;2022-09-03T16:34:59;96025.06;;;22.91;100.00
19023;BME280;35226;48.606;8.858;2022-09-03T16:37:29;96021.41;;;22.96;100.00
19023;BME280;35226;48.606;8.858;2022-09-03T16:40:14;96011.13;;;22.98;100.00
19023;BME280;35226;48.606;8.858;2022-09-03T16:51:20;96012.50;;;23.10;100.00
19023;BME280;35226;48.606;8.858;2022-09-03T16:54:06;96007.06;;;23.12;100.00
19023;BME280;35226;48.606;8.858;2022-09-03T16:56:49;96024.16;;;23.20;100.00
19023;BME280;35226;48.606;8.858;2022-09-03T16:59:35;96026.22;;;23.01;100.00
19023;BME280;35226;48.606;8.858;2022-09-03T17:10:48;96025.81;;;23.10;100.00
19023;BME280;35226;48.606;8.858;2022-09-03T17:26:55;96030.59;;;23.15;100.00
19023;BME280;35226;48.606;8.858;2022-09-03T17:29:52;96039.53;;;23.19;100.00
19023;BME280;35226;48.606;8.858;2022-09-03T17:35:03;96041.13;;;23.14;100.00